createdAt,value
2018-07-04T00:02:07.520Z,14.40
2018-07-04T00:04:47.941Z,14.40
2018-07-04T00:07:28.084Z,14.50
2018-07-04T00:10:09.236Z,14.50
2018-07-04T00:12:55.109Z,14.50
2018-07-04T00:15:38.180Z,14.50
2018-07-04T00:18:18.536Z,14.50
2018-07-04T00:20:58.625Z,14.50
2018-07-04T00:23:38.920Z,14.50
2018-07-04T00:26:20.197Z,14.50
2018-07-04T00:29:00.459Z,14.40
2018-07-04T00:31:46.008Z,14.40
2018-07-04T00:34:26.269Z,14.50
2018-07-04T00:37:08.448Z,14.40
2018-07-04T00:39:52.853Z,14.40
2018-07-04T00:42:37.052Z,14.40
2018-07-04T00:45:18.252Z,14.40
2018-07-04T00:47:58.428Z,14.40
2018-07-04T00:50:38.528Z,14.40
2018-07-04T00:53:18.799Z,14.30
2018-07-04T00:55:59.240Z,14.30
2018-07-04T00:58:39.340Z,14.30
2018-07-04T01:01:24.560Z,14.40
2018-07-04T01:04:09.340Z,14.40
2018-07-04T01:06:49.728Z,14.30
2018-07-04T01:09:34.300Z,14.30
2018-07-04T01:12:23.708Z,14.30
2018-07-04T01:15:09.276Z,14.40
2018-07-04T01:17:50.480Z,14.50
2018-07-04T01:20:37.132Z,14.50
2018-07-04T01:23:19.375Z,14.40
2018-07-04T01:26:03.931Z,14.40
2018-07-04T01:28:48.005Z,14.40
2018-07-04T01:31:28.191Z,14.40
2018-07-04T01:37:06.612Z,14.40
2018-07-04T01:39:52.497Z,14.40
2018-07-04T01:42:32.651Z,14.30
2018-07-04T01:45:17.039Z,14.30
2018-07-04T01:47:57.171Z,14.10
2018-07-04T01:50:37.420Z,14.00
2018-07-04T01:53:23.131Z,14.00
2018-07-04T01:56:05.299Z,14.00
2018-07-04T01:58:46.375Z,13.90
2018-07-04T02:01:31.735Z,13.80
2018-07-04T02:04:11.914Z,13.70
2018-07-04T02:06:52.152Z,13.50
2018-07-04T02:09:33.224Z,13.40
2018-07-04T02:12:18.556Z,13.40
2018-07-04T02:15:02.775Z,13.40
2018-07-04T02:17:46.827Z,13.50
2018-07-04T02:20:31.983Z,13.60
2018-07-04T02:23:16.963Z,13.70
2018-07-04T02:25:59.200Z,13.70
2018-07-04T02:28:39.551Z,13.70
2018-07-04T02:31:19.620Z,13.80
2018-07-04T02:36:37.338Z,13.70
2018-07-04T02:39:20.949Z,13.70
2018-07-04T02:42:03.291Z,13.70
2018-07-04T02:44:43.482Z,13.70
2018-07-04T02:47:26.802Z,13.80
2018-07-04T02:52:48.499Z,13.80
2018-07-04T02:55:32.508Z,13.80
2018-07-04T02:58:15.783Z,13.70
2018-07-04T03:00:56.144Z,13.60
2018-07-04T03:03:38.311Z,13.50
2018-07-04T03:06:22.515Z,13.40
2018-07-04T03:09:04.119Z,13.50
2018-07-04T03:11:44.415Z,13.40
2018-07-04T03:14:24.627Z,13.50
2018-07-04T03:17:05.064Z,13.50
2018-07-04T03:19:46.347Z,13.50
2018-07-04T03:22:27.431Z,13.50
2018-07-04T03:25:07.687Z,13.50
2018-07-04T03:27:52.098Z,13.40
2018-07-04T03:30:35.911Z,13.40
2018-07-04T03:33:18.079Z,13.30
2018-07-04T03:38:37.947Z,13.40
2018-07-04T03:41:24.111Z,13.40
2018-07-04T03:44:04.403Z,13.40
2018-07-04T03:46:49.047Z,13.40
2018-07-04T03:49:33.023Z,13.50
2018-07-04T03:52:18.136Z,13.60
2018-07-04T03:54:58.476Z,13.70
2018-07-04T04:00:18.691Z,13.90
2018-07-04T04:03:04.991Z,14.00
2018-07-04T04:05:45.374Z,14.00
2018-07-04T04:08:26.511Z,14.10
2018-07-04T04:11:07.843Z,14.30
2018-07-04T04:13:50.075Z,14.40
2018-07-04T04:16:30.147Z,14.50
2018-07-04T04:19:11.671Z,14.60
2018-07-04T04:21:57.028Z,14.70
2018-07-04T04:24:41.956Z,14.80
2018-07-04T04:27:27.872Z,14.80
2018-07-04T04:30:09.135Z,14.90
2018-07-04T04:32:54.751Z,15.00
2018-07-04T04:35:34.931Z,15.10
2018-07-04T04:38:15.051Z,15.20
2018-07-04T04:40:56.303Z,15.40
2018-07-04T04:43:37.619Z,15.60
2018-07-04T04:46:19.231Z,15.80
2018-07-04T04:48:59.479Z,16.00
2018-07-04T04:51:41.524Z,16.10
2018-07-04T04:54:21.772Z,16.30
2018-07-04T04:57:05.883Z,16.50
2018-07-04T04:59:47.919Z,16.80
2018-07-04T05:02:29.203Z,16.90
2018-07-04T05:05:11.182Z,17.10
2018-07-04T05:07:51.407Z,17.30
2018-07-04T05:10:37.647Z,17.40
2018-07-04T05:13:19.867Z,17.40
2018-07-04T05:16:03.423Z,17.40
2018-07-04T05:18:43.647Z,17.50
2018-07-04T05:21:26.879Z,17.60
2018-07-04T05:24:12.768Z,17.70
2018-07-04T05:26:53.239Z,17.80
2018-07-04T05:29:35.227Z,18.00
2018-07-04T05:32:20.852Z,18.20
2018-07-04T05:35:05.909Z,18.50
2018-07-04T05:37:51.239Z,18.80
2018-07-04T05:40:38.522Z,19.10
2018-07-04T05:43:21.863Z,19.40
2018-07-04T05:46:03.158Z,19.60
2018-07-04T05:48:46.839Z,20.00
2018-07-04T05:51:35.894Z,20.40
2018-07-04T05:54:15.875Z,20.70
2018-07-04T05:56:58.200Z,21.00
2018-07-04T05:59:43.975Z,21.20
2018-07-04T06:02:24.167Z,21.30
2018-07-04T06:05:05.571Z,21.50
2018-07-04T06:07:47.871Z,21.80
2018-07-04T06:10:28.747Z,22.10
2018-07-04T06:13:08.883Z,22.60
2018-07-04T06:15:52.955Z,22.90
2018-07-04T06:18:37.011Z,23.20
2018-07-04T06:21:17.310Z,23.40
2018-07-04T06:24:02.242Z,23.70
2018-07-04T06:26:47.259Z,24.00
2018-07-04T06:29:27.459Z,24.40
2018-07-04T06:32:07.591Z,24.70
2018-07-04T06:37:23.937Z,25.70
2018-07-04T06:39:58.815Z,25.60
2018-07-04T06:42:37.403Z,26.00
2018-07-04T06:45:15.531Z,26.30
2018-07-04T06:48:03.883Z,26.50
2018-07-04T06:50:32.615Z,26.70
2018-07-04T06:53:00.367Z,26.70
2018-07-04T06:55:28.111Z,26.70
2018-07-04T06:58:03.127Z,27.00
2018-07-04T07:00:38.863Z,27.00
2018-07-04T07:03:22.482Z,27.30
2018-07-04T07:06:02.680Z,27.50
2018-07-04T07:11:36.722Z,27.30
2018-07-04T07:14:17.003Z,27.30
2018-07-04T07:17:00.447Z,27.00
2018-07-04T07:19:45.127Z,27.10
2018-07-04T07:22:28.139Z,27.40
2018-07-04T07:25:10.331Z,27.20
2018-07-04T07:28:02.347Z,27.50
2018-07-04T07:30:46.459Z,27.40
2018-07-04T07:33:26.782Z,27.60
2018-07-04T07:36:10.347Z,27.80
2018-07-04T07:38:51.567Z,27.50
2018-07-04T07:41:36.323Z,27.10
2018-07-04T07:44:19.851Z,27.10
2018-07-04T07:47:01.415Z,27.20
2018-07-04T07:49:44.631Z,27.40
2018-07-04T07:52:30.271Z,27.50
2018-07-04T07:55:14.350Z,27.80
2018-07-04T07:57:58.938Z,28.20
2018-07-04T08:00:43.610Z,28.00
2018-07-04T08:03:23.808Z,27.80
2018-07-04T08:06:05.444Z,28.10
2018-07-04T08:08:46.510Z,28.30
2018-07-04T08:11:29.671Z,28.50
2018-07-04T08:14:11.787Z,28.70
2018-07-04T08:16:55.727Z,29.10
2018-07-04T08:19:35.890Z,29.90
2018-07-04T08:22:22.070Z,30.70
2018-07-04T08:25:04.351Z,31.30
2018-07-04T08:27:46.515Z,31.90
2018-07-04T08:30:30.439Z,31.40
2018-07-04T08:33:12.427Z,30.70
2018-07-04T08:35:58.502Z,30.50
2018-07-04T08:41:36.371Z,30.90
2018-07-04T08:44:17.530Z,31.00
2018-07-04T08:46:57.607Z,31.10
2018-07-04T08:52:36.266Z,31.10
2018-07-04T08:55:22.907Z,31.60
2018-07-04T08:58:07.320Z,32.00
2018-07-04T09:03:22.011Z,31.80
2018-07-04T09:06:03.146Z,32.00
2018-07-04T09:08:45.206Z,32.90
2018-07-04T09:11:25.489Z,32.90
2018-07-04T09:14:05.767Z,33.50
2018-07-04T09:16:45.994Z,33.10
2018-07-04T09:19:28.215Z,32.30
2018-07-04T09:22:10.251Z,32.20
2018-07-04T09:24:51.463Z,32.70
2018-07-04T09:27:31.695Z,32.70
2018-07-04T09:30:12.515Z,33.80
2018-07-04T09:32:58.387Z,35.20
2018-07-04T09:35:42.331Z,35.20
2018-07-04T09:38:22.582Z,35.50
2018-07-04T09:41:05.847Z,36.00
2018-07-04T09:43:46.319Z,36.20
2018-07-04T09:46:29.075Z,36.90
2018-07-04T09:49:09.558Z,36.80
2018-07-04T09:51:49.647Z,36.40
2018-07-04T09:54:35.076Z,35.00
2018-07-04T09:57:21.710Z,36.20
2018-07-04T10:00:04.363Z,37.40
2018-07-04T10:05:20.311Z,38.90
2018-07-04T10:08:04.562Z,38.20
2018-07-04T10:10:48.662Z,37.10
2018-07-04T10:13:29.810Z,36.60
2018-07-04T10:16:09.962Z,36.40
2018-07-04T10:18:50.114Z,36.90
2018-07-04T10:21:30.406Z,37.00
2018-07-04T10:24:13.202Z,36.60
2018-07-04T10:26:54.354Z,36.40
2018-07-04T10:29:35.398Z,36.10
2018-07-04T10:32:15.799Z,35.40
2018-07-04T10:37:51.410Z,34.70
2018-07-04T10:40:35.810Z,35.00
2018-07-04T10:43:15.935Z,34.70
2018-07-04T10:45:56.071Z,34.70
2018-07-04T10:48:36.238Z,34.90
2018-07-04T10:51:16.286Z,35.40
2018-07-04T10:53:57.482Z,36.30
2018-07-04T10:56:38.707Z,37.10
2018-07-04T10:59:18.753Z,37.10
2018-07-04T11:02:00.119Z,36.00
2018-07-04T11:04:41.887Z,35.90
2018-07-04T11:07:22.530Z,35.60
2018-07-04T11:10:03.655Z,35.60
2018-07-04T11:12:57.198Z,35.70
2018-07-04T11:15:42.790Z,36.50
2018-07-04T11:18:25.942Z,36.40
2018-07-04T11:21:07.091Z,36.40
2018-07-04T11:23:48.390Z,37.10
2018-07-04T11:26:28.646Z,37.70
2018-07-04T11:29:09.230Z,37.80
2018-07-04T11:31:51.490Z,37.50
2018-07-04T11:34:35.626Z,37.50
2018-07-04T11:37:17.786Z,37.50
2018-07-04T11:39:57.978Z,38.40
2018-07-04T11:42:39.110Z,39.90
2018-07-04T11:45:23.955Z,40.30
2018-07-04T11:47:51.723Z,40.70
2018-07-04T11:50:20.462Z,40.80
2018-07-04T11:52:54.301Z,40.30
2018-07-04T11:55:22.074Z,39.70
2018-07-04T11:57:51.762Z,40.30
2018-07-04T12:00:22.494Z,40.90
2018-07-04T12:02:55.642Z,41.20
2018-07-04T12:05:35.870Z,41.80
2018-07-04T12:08:07.470Z,41.90
2018-07-04T12:10:38.761Z,41.40
2018-07-04T12:13:06.562Z,41.80
2018-07-04T12:15:42.304Z,41.60
2018-07-04T12:18:17.106Z,41.50
2018-07-04T12:20:46.142Z,42.10
2018-07-04T12:23:14.393Z,42.80
2018-07-04T12:25:43.256Z,44.40
2018-07-04T12:28:21.595Z,44.90
2018-07-04T12:30:49.350Z,43.80
2018-07-04T12:33:20.370Z,43.30
2018-07-04T12:35:56.966Z,43.50
2018-07-04T12:38:35.274Z,44.10
2018-07-04T12:41:14.618Z,43.60
2018-07-04T12:44:01.524Z,43.00
2018-07-04T12:46:30.274Z,43.90
2018-07-04T12:49:01.431Z,43.60
2018-07-04T12:51:39.670Z,42.50
2018-07-04T12:54:17.258Z,41.70
2018-07-04T12:56:57.494Z,40.70
2018-07-04T12:59:40.778Z,39.40
2018-07-04T13:02:21.058Z,39.10
2018-07-04T13:05:06.670Z,41.00
2018-07-04T13:07:47.895Z,41.80
2018-07-04T13:10:28.991Z,42.60
2018-07-04T13:13:11.216Z,42.60
2018-07-04T13:15:54.946Z,42.80
2018-07-04T13:18:35.202Z,43.10
2018-07-04T13:21:19.678Z,42.40
2018-07-04T13:24:00.654Z,41.80
2018-07-04T13:26:44.583Z,41.80
2018-07-04T13:29:26.822Z,43.20
2018-07-04T13:32:10.317Z,41.20
2018-07-04T13:34:56.126Z,40.20
2018-07-04T13:37:37.762Z,38.40
2018-07-04T13:40:18.014Z,37.40
2018-07-04T13:42:58.265Z,38.60
2018-07-04T13:45:40.510Z,40.10
2018-07-04T13:48:22.418Z,40.50
2018-07-04T13:51:02.626Z,37.80
2018-07-04T13:53:47.846Z,36.10
2018-07-04T13:56:33.637Z,37.40
2018-07-04T13:59:14.558Z,40.60
2018-07-04T14:01:54.850Z,42.60
2018-07-04T14:04:35.042Z,40.50
2018-07-04T14:07:15.101Z,39.20
2018-07-04T14:09:55.329Z,39.30
2018-07-04T14:12:47.245Z,40.60
2018-07-04T14:15:32.201Z,40.00
2018-07-04T14:18:12.330Z,39.00
2018-07-04T14:20:54.473Z,39.40
2018-07-04T14:26:08.697Z,39.60
2018-07-04T14:28:49.049Z,39.20
2018-07-04T14:31:32.897Z,37.70
2018-07-04T14:34:19.894Z,36.30
2018-07-04T14:37:00.650Z,35.20
2018-07-04T14:42:24.021Z,33.50
2018-07-04T14:45:11.177Z,33.30
2018-07-04T14:47:51.494Z,33.10
2018-07-04T14:50:33.697Z,32.80
2018-07-04T14:53:20.669Z,32.80
2018-07-04T14:56:01.697Z,32.90
2018-07-04T14:58:45.997Z,33.90
2018-07-04T15:01:26.249Z,36.30
2018-07-04T15:04:13.513Z,36.90
2018-07-04T15:06:53.878Z,36.30
2018-07-04T15:09:34.205Z,34.20
2018-07-04T15:12:24.801Z,33.20
2018-07-04T15:15:05.049Z,32.60
2018-07-04T15:17:45.114Z,32.10
2018-07-04T15:20:26.741Z,32.40
2018-07-04T15:23:07.865Z,32.40
2018-07-04T15:25:48.025Z,33.60
2018-07-04T15:28:31.570Z,33.60
2018-07-04T15:31:13.757Z,33.20
2018-07-04T15:33:56.129Z,32.30
2018-07-04T15:36:40.552Z,31.40
2018-07-04T15:39:20.633Z,30.80
2018-07-04T15:42:05.677Z,30.50
2018-07-04T15:44:45.977Z,30.30
2018-07-04T15:47:26.150Z,30.40
2018-07-04T15:50:11.338Z,30.90
2018-07-04T15:52:53.427Z,31.20
2018-07-04T15:55:33.437Z,31.30
2018-07-04T15:58:18.737Z,31.50
2018-07-04T16:00:58.913Z,32.30
2018-07-04T16:03:41.017Z,32.70
2018-07-04T16:06:24.873Z,32.50
2018-07-04T16:09:18.053Z,32.20
2018-07-04T16:11:59.125Z,31.60
2018-07-04T16:14:39.397Z,31.30
2018-07-04T16:20:00.206Z,30.80
2018-07-04T16:25:21.051Z,31.70
2018-07-04T16:28:02.174Z,32.00
2018-07-04T16:30:45.365Z,32.30
2018-07-04T16:33:26.425Z,33.00
2018-07-04T16:36:18.257Z,33.50
2018-07-04T16:39:00.846Z,33.40
2018-07-04T16:44:36.236Z,32.70
2018-07-04T16:47:20.766Z,32.60
2018-07-04T16:50:00.818Z,32.30
2018-07-04T16:52:41.101Z,32.00
2018-07-04T16:55:21.249Z,32.00
2018-07-04T16:58:02.450Z,31.00
2018-07-04T17:00:46.918Z,29.80
2018-07-04T17:03:28.122Z,29.20
2018-07-04T17:06:19.813Z,29.70
2018-07-04T17:09:01.580Z,30.00
2018-07-04T17:11:42.345Z,29.30
2018-07-04T17:14:26.385Z,29.20
2018-07-04T17:17:08.772Z,29.60
2018-07-04T17:19:51.125Z,30.20
2018-07-04T17:22:42.049Z,30.40
2018-07-04T17:25:24.109Z,30.50
2018-07-04T17:28:09.425Z,30.30
2018-07-04T17:30:52.900Z,30.10
2018-07-04T17:33:33.168Z,30.00
2018-07-04T17:36:13.197Z,29.90
2018-07-04T17:38:54.197Z,29.60
2018-07-04T17:41:39.181Z,29.00
2018-07-04T17:44:21.349Z,28.60
2018-07-04T17:47:05.665Z,28.40
2018-07-04T17:49:46.745Z,28.10
2018-07-04T17:52:26.813Z,27.70
2018-07-04T17:55:07.485Z,27.20
2018-07-04T17:57:49.410Z,26.80
2018-07-04T18:00:30.517Z,26.30
2018-07-04T18:03:10.745Z,25.90
2018-07-04T18:05:53.997Z,25.50
2018-07-04T18:08:37.833Z,25.10
2018-07-04T18:11:19.201Z,24.80
2018-07-04T18:13:59.353Z,24.40
2018-07-04T18:16:45.065Z,24.10
2018-07-04T18:19:27.136Z,23.90
2018-07-04T18:22:09.469Z,23.60
2018-07-04T18:24:50.609Z,23.40
2018-07-04T18:27:31.789Z,23.20
2018-07-04T18:30:13.009Z,23.00
2018-07-04T18:32:53.309Z,22.80
2018-07-04T18:35:33.412Z,22.70
2018-07-04T18:38:13.767Z,22.60
2018-07-04T18:40:54.841Z,22.50
2018-07-04T18:43:39.700Z,22.40
2018-07-04T18:46:20.721Z,22.30
2018-07-04T18:49:01.998Z,22.30
2018-07-04T18:51:43.189Z,22.20
2018-07-04T18:54:23.469Z,22.10
2018-07-04T18:57:07.324Z,22.10
2018-07-04T18:59:48.494Z,22.00
2018-07-04T19:02:34.389Z,21.90
2018-07-04T19:05:16.609Z,21.80
2018-07-04T19:07:58.839Z,21.60
2018-07-04T19:10:44.424Z,21.50
2018-07-04T19:13:25.493Z,21.40
2018-07-04T19:16:05.758Z,21.30
2018-07-04T19:18:46.677Z,21.20
2018-07-04T19:21:26.973Z,21.10
2018-07-04T19:24:07.285Z,21.00
2018-07-04T19:26:51.168Z,20.90
2018-07-04T19:29:31.596Z,20.80
2018-07-04T19:32:15.748Z,20.60
2018-07-04T19:34:55.829Z,20.50
2018-07-04T19:37:36.112Z,20.40
2018-07-04T19:40:17.449Z,20.40
2018-07-04T19:42:57.672Z,20.30
2018-07-04T19:45:38.960Z,20.20
2018-07-04T19:48:19.028Z,20.20
2018-07-04T19:51:00.193Z,20.20
2018-07-04T19:53:41.593Z,20.20
2018-07-04T19:56:24.340Z,20.20
2018-07-04T19:59:08.224Z,20.10
2018-07-04T20:04:26.057Z,19.80
2018-07-04T20:07:07.800Z,19.80
2018-07-04T20:09:47.820Z,19.70
2018-07-04T20:12:31.560Z,19.70
2018-07-04T20:15:11.856Z,19.60
2018-07-04T20:17:52.148Z,19.60
2018-07-04T20:20:32.296Z,19.50
2018-07-04T20:23:12.568Z,19.50
2018-07-04T20:25:54.740Z,19.40
2018-07-04T20:28:36.952Z,19.30
2018-07-04T20:31:21.665Z,19.20
2018-07-04T20:34:02.038Z,19.10
2018-07-04T20:36:42.128Z,19.00
2018-07-04T20:39:22.324Z,18.90
2018-07-04T20:42:02.508Z,18.90
2018-07-04T20:44:43.844Z,18.90
2018-07-04T20:47:27.246Z,18.90
2018-07-04T20:50:07.372Z,18.90
2018-07-04T20:55:22.986Z,18.90
2018-07-04T20:58:03.244Z,18.90
2018-07-04T21:00:45.432Z,18.80
2018-07-04T21:03:25.719Z,18.80
2018-07-04T21:06:09.882Z,18.70
2018-07-04T21:11:27.903Z,18.70
2018-07-04T21:14:08.052Z,18.60
2018-07-04T21:16:51.595Z,18.60
2018-07-04T21:19:31.808Z,18.50
2018-07-04T21:22:12.187Z,18.50
2018-07-04T21:24:52.520Z,18.50
2018-07-04T21:32:49.631Z,18.20
2018-07-04T21:35:29.907Z,18.10
2018-07-04T21:38:10.032Z,18.00
2018-07-04T21:40:52.596Z,17.90
2018-07-04T21:43:33.739Z,17.80
2018-07-04T21:46:14.174Z,17.70
2018-07-04T21:48:55.188Z,17.70
2018-07-04T21:51:37.908Z,17.70
2018-07-04T21:54:19.296Z,17.60
2018-07-04T21:57:01.647Z,17.50
2018-07-04T21:59:41.908Z,17.30
2018-07-04T22:02:22.104Z,17.30
2018-07-04T22:05:03.208Z,17.20
2018-07-04T22:07:47.660Z,17.20
2018-07-04T22:10:27.936Z,17.20
2018-07-04T22:13:12.496Z,17.20
2018-07-04T22:18:31.220Z,17.10
2018-07-04T22:21:13.776Z,17.00
2018-07-04T22:23:55.900Z,16.90
2018-07-04T22:26:37.216Z,16.70
2018-07-04T22:29:21.411Z,16.40
2018-07-04T22:32:01.608Z,16.30
2018-07-04T22:34:41.860Z,16.20
2018-07-04T22:37:25.605Z,16.20
2018-07-04T22:40:06.765Z,16.30
2018-07-04T22:42:49.696Z,16.30
2018-07-04T22:45:30.996Z,16.40
2018-07-04T22:48:12.152Z,16.50
2018-07-04T22:50:54.504Z,16.60
2018-07-04T22:53:36.731Z,16.60
2018-07-04T22:56:18.303Z,16.50
2018-07-04T22:58:58.476Z,16.50
2018-07-04T23:01:43.539Z,16.40
2018-07-04T23:04:24.000Z,16.30
2018-07-04T23:07:06.255Z,16.30
2018-07-04T23:09:46.375Z,16.20
2018-07-04T23:12:29.388Z,16.20
2018-07-04T23:15:09.787Z,16.10
2018-07-04T23:17:50.132Z,16.10
2018-07-04T23:20:30.299Z,16.00
2018-07-04T23:23:10.651Z,15.90
2018-07-04T23:25:52.347Z,15.90
2018-07-04T23:28:36.258Z,15.80
2018-07-04T23:31:17.595Z,15.80
2018-07-04T23:33:57.808Z,15.70
2018-07-04T23:36:39.192Z,15.60
2018-07-04T23:39:20.519Z,15.60
2018-07-04T23:42:02.368Z,15.60
2018-07-04T23:44:42.751Z,15.60
2018-07-04T23:47:22.948Z,15.60
2018-07-04T23:50:03.396Z,15.70
2018-07-04T23:52:47.964Z,15.70
2018-07-04T23:57:54.595Z,15.60
